createdAt,value
2022-07-28T00:02:57.606Z,99020.83
2022-07-28T00:06:03.885Z,99021.94
2022-07-28T00:09:10.204Z,99019.76
2022-07-28T00:12:16.492Z,99021.25
2022-07-28T00:15:22.786Z,99022.15
2022-07-28T00:18:29.448Z,99023.64
2022-07-28T00:21:35.766Z,99027.27
2022-07-28T00:24:41.993Z,99020.41
2022-07-28T00:27:48.533Z,99021.36
2022-07-28T00:30:55.765Z,99020.56
2022-07-28T00:34:02.138Z,99018.98
2022-07-28T00:37:08.233Z,99019.31
2022-07-28T00:40:19.906Z,99029.50
2022-07-28T00:43:26.281Z,99040.48
2022-07-28T00:46:32.651Z,99042.49
2022-07-28T00:49:39.515Z,99045.38
2022-07-28T00:52:46.082Z,99045.34
2022-07-28T00:56:03.061Z,99042.07
2022-07-28T00:59:12.935Z,99047.31
2022-07-28T01:02:19.464Z,99055.54
2022-07-28T01:05:43.811Z,99060.82
2022-07-28T01:09:05.071Z,99059.84
2022-07-28T01:12:20.009Z,99064.96
2022-07-28T01:15:32.453Z,99065.73
2022-07-28T01:18:44.497Z,99065.30
2022-07-28T01:21:52.394Z,99067.88
2022-07-28T01:25:15.172Z,99066.73
2022-07-28T01:28:30.807Z,99068.20
2022-07-28T01:31:41.141Z,99070.21
2022-07-28T01:34:53.537Z,99072.89
2022-07-28T01:38:05.204Z,99072.02
2022-07-28T01:41:19.408Z,99066.15
2022-07-28T01:44:28.343Z,99068.92
2022-07-28T01:47:36.132Z,99067.29
2022-07-28T01:50:43.583Z,99068.55
2022-07-28T01:53:52.894Z,99063.98
2022-07-28T01:57:00.950Z,99069.60
2022-07-28T02:00:11.621Z,99070.33
2022-07-28T02:03:19.540Z,99070.53
2022-07-28T02:06:26.346Z,99072.30
2022-07-28T02:09:33.850Z,99068.12
2022-07-28T02:12:42.733Z,99068.61
2022-07-28T02:15:50.061Z,99067.06
2022-07-28T02:18:59.332Z,99064.13
2022-07-28T02:22:07.795Z,99062.14
2022-07-28T02:25:15.470Z,99064.68
2022-07-28T02:28:25.496Z,99068.17
2022-07-28T02:31:40.521Z,99074.34
2022-07-28T02:34:50.973Z,99073.61
2022-07-28T02:38:02.453Z,99074.52
2022-07-28T02:41:16.465Z,99078.38
2022-07-28T02:44:28.589Z,99082.55
2022-07-28T02:47:40.274Z,99082.41
2022-07-28T02:50:48.046Z,99080.02
2022-07-28T02:53:55.211Z,99075.21
2022-07-28T02:57:02.745Z,99076.14
2022-07-28T03:00:11.146Z,99079.23
2022-07-28T03:03:18.625Z,99090.80
2022-07-28T03:06:28.510Z,99093.70
2022-07-28T03:09:39.612Z,99095.55
2022-07-28T03:12:45.863Z,99100.12
2022-07-28T03:15:52.173Z,99107.83
2022-07-28T03:18:59.020Z,99107.02
2022-07-28T03:22:05.645Z,99108.11
2022-07-28T03:25:18.899Z,99110.86
2022-07-28T03:28:26.032Z,99117.24
2022-07-28T03:31:33.301Z,99120.76
2022-07-28T03:34:40.040Z,99118.56
2022-07-28T03:37:51.735Z,99123.59
2022-07-28T03:40:59.804Z,99122.52
2022-07-28T03:44:06.916Z,99120.25
2022-07-28T03:47:13.213Z,99123.88
2022-07-28T03:50:19.897Z,99124.54
2022-07-28T03:53:28.509Z,99125.30
2022-07-28T03:56:35.386Z,99129.91
2022-07-28T03:59:41.941Z,99132.98
2022-07-28T04:02:48.637Z,99138.39
2022-07-28T04:05:56.210Z,99141.73
2022-07-28T04:09:02.493Z,99142.47
2022-07-28T04:12:10.093Z,99144.70
2022-07-28T04:15:17.303Z,99144.30
2022-07-28T04:18:23.777Z,99139.81
2022-07-28T04:21:30.231Z,99144.63
2022-07-28T04:24:36.504Z,99145.51
2022-07-28T04:27:43.742Z,99149.77
2022-07-28T04:30:50.314Z,99147.79
2022-07-28T04:33:56.707Z,99146.48
2022-07-28T04:37:02.965Z,99145.67
2022-07-28T04:40:14.671Z,99145.76
2022-07-28T04:43:23.040Z,99144.23
2022-07-28T04:46:30.318Z,99144.99
2022-07-28T04:49:36.628Z,99143.46
2022-07-28T04:52:43.010Z,99147.40
2022-07-28T04:55:49.579Z,99147.52
2022-07-28T04:58:55.654Z,99149.77
2022-07-28T05:02:01.921Z,99153.94
2022-07-28T05:05:09.456Z,99157.27
2022-07-28T05:08:15.750Z,99160.77
2022-07-28T05:11:21.948Z,99165.19
2022-07-28T05:14:28.191Z,99166.46
2022-07-28T05:17:34.397Z,99168.52
2022-07-28T05:20:40.538Z,99167.60
2022-07-28T05:23:47.767Z,99170.13
2022-07-28T05:26:54.208Z,99169.83
2022-07-28T05:30:00.330Z,99173.16
2022-07-28T05:33:06.511Z,99172.45
2022-07-28T05:36:14.163Z,99177.84
2022-07-28T05:39:20.390Z,99182.55
2022-07-28T05:42:28.624Z,99185.52
2022-07-28T05:45:35.305Z,99187.77
2022-07-28T05:48:41.537Z,99191.45
2022-07-28T05:51:47.612Z,99189.54
2022-07-28T05:54:53.752Z,99193.43
2022-07-28T05:58:00.796Z,99197.95
2022-07-28T06:01:07.354Z,99192.33
2022-07-28T06:04:29.673Z,99197.02
2022-07-28T06:07:42.921Z,99196.98
2022-07-28T06:11:09.363Z,99195.08
2022-07-28T06:14:15.893Z,99199.16
2022-07-28T06:17:22.351Z,99207.64
2022-07-28T06:20:28.904Z,99208.54
2022-07-28T06:23:35.085Z,99210.69
2022-07-28T06:26:44.619Z,99213.51
2022-07-28T06:29:51.311Z,99214.30
2022-07-28T06:32:58.142Z,99213.27
2022-07-28T06:36:04.362Z,99217.85
2022-07-28T06:39:10.506Z,99218.51
2022-07-28T06:42:16.771Z,99215.21
2022-07-28T06:45:23.002Z,99221.21
2022-07-28T06:48:29.579Z,99219.07
2022-07-28T06:51:38.453Z,99216.49
2022-07-28T06:54:48.614Z,99213.77
2022-07-28T06:57:55.786Z,99215.66
2022-07-28T07:01:02.812Z,99217.05
2022-07-28T07:04:09.385Z,99211.83
2022-07-28T07:07:17.234Z,99215.50
2022-07-28T07:10:23.710Z,99213.01
2022-07-28T07:13:30.354Z,99211.64
2022-07-28T07:16:36.689Z,99216.90
2022-07-28T07:19:42.939Z,99216.86
2022-07-28T07:22:49.681Z,99217.82
2022-07-28T07:25:55.804Z,99218.33
2022-07-28T07:29:02.012Z,99214.73
2022-07-28T07:32:10.886Z,99215.91
2022-07-28T07:35:17.341Z,99217.36
2022-07-28T07:38:28.814Z,99215.56
2022-07-28T07:41:35.421Z,99214.00
2022-07-28T07:44:41.599Z,99214.69
2022-07-28T07:47:56.238Z,99205.41
2022-07-28T07:51:02.444Z,99211.92
2022-07-28T07:54:09.914Z,99211.21
2022-07-28T07:57:16.121Z,99212.27
2022-07-28T08:00:28.845Z,99215.19
2022-07-28T08:03:35.751Z,99216.14
2022-07-28T08:06:41.937Z,99215.95
2022-07-28T08:09:48.656Z,99218.28
2022-07-28T08:12:54.807Z,99224.19
2022-07-28T08:16:01.046Z,99220.91
2022-07-28T08:19:07.500Z,99220.65
2022-07-28T08:22:15.727Z,99221.62
2022-07-28T08:25:22.561Z,99219.73
2022-07-28T08:28:28.714Z,99218.52
2022-07-28T08:31:35.450Z,99212.97
2022-07-28T08:34:41.905Z,99214.65
2022-07-28T08:37:47.997Z,99216.16
2022-07-28T08:40:57.129Z,99213.54
2022-07-28T08:44:06.907Z,99214.20
2022-07-28T08:47:14.687Z,99218.48
2022-07-28T08:50:24.677Z,99218.95
2022-07-28T08:53:31.957Z,99217.02
2022-07-28T08:56:41.640Z,99212.30
2022-07-28T08:59:54.916Z,99205.34
2022-07-28T09:03:03.360Z,99204.91
2022-07-28T09:06:10.926Z,99203.02
2022-07-28T09:09:17.150Z,99204.48
2022-07-28T09:12:27.530Z,99200.02
2022-07-28T09:15:35.237Z,99203.08
2022-07-28T09:18:41.704Z,99205.45
2022-07-28T09:21:48.444Z,99200.98
2022-07-28T09:24:54.712Z,99206.05
2022-07-28T09:28:07.190Z,99201.25
2022-07-28T09:31:14.075Z,99197.31
2022-07-28T09:34:20.416Z,99197.78
2022-07-28T09:37:28.649Z,99196.71
2022-07-28T09:40:34.888Z,99198.34
2022-07-28T09:43:42.449Z,99200.59
2022-07-28T09:46:48.568Z,99199.27
2022-07-28T09:49:55.368Z,99193.11
2022-07-28T09:53:02.511Z,99191.96
2022-07-28T09:56:09.301Z,99193.58
2022-07-28T09:59:18.352Z,99200.64
2022-07-28T10:02:28.339Z,99197.96
2022-07-28T10:05:44.653Z,99196.32
2022-07-28T10:08:52.699Z,99198.06
2022-07-28T10:12:14.376Z,99198.77
2022-07-28T10:15:46.751Z,99197.83
2022-07-28T10:18:57.953Z,99198.12
2022-07-28T10:22:05.144Z,99194.78
2022-07-28T10:25:13.018Z,99199.16
2022-07-28T10:28:23.036Z,99190.02
2022-07-28T10:31:35.471Z,99191.56
2022-07-28T10:34:50.434Z,99184.43
2022-07-28T10:38:00.502Z,99180.20
2022-07-28T10:41:10.137Z,99183.63
2022-07-28T10:44:20.038Z,99178.02
2022-07-28T10:47:26.726Z,99184.44
2022-07-28T10:50:42.973Z,99181.30
2022-07-28T10:53:54.486Z,99181.14
2022-07-28T10:57:04.631Z,99184.25
2022-07-28T11:00:24.417Z,99178.48
2022-07-28T11:03:44.452Z,99174.73
2022-07-28T11:06:50.974Z,99172.66
2022-07-28T11:10:21.427Z,99169.39
2022-07-28T11:13:33.059Z,99166.23
2022-07-28T11:16:39.679Z,99166.71
2022-07-28T11:23:57.087Z,99164.91
2022-07-28T11:27:04.262Z,99158.70
2022-07-28T11:30:11.464Z,99154.86
2022-07-28T11:33:17.804Z,99156.42
2022-07-28T11:36:23.811Z,99154.76
2022-07-28T11:39:31.575Z,99150.90
2022-07-28T11:42:49.796Z,99150.73
2022-07-28T11:46:32.068Z,99151.83
2022-07-28T11:49:38.263Z,99147.27
2022-07-28T11:52:55.725Z,99148.23
2022-07-28T11:56:03.375Z,99148.27
2022-07-28T11:59:11.630Z,99141.14
2022-07-28T12:02:26.184Z,99139.08
2022-07-28T12:05:34.438Z,99131.17
2022-07-28T12:08:56.859Z,99133.13
2022-07-28T12:12:03.204Z,99135.81
2022-07-28T12:15:16.067Z,99136.02
2022-07-28T12:18:24.772Z,99134.30
2022-07-28T12:21:47.450Z,99132.60
2022-07-28T12:24:59.647Z,99125.52
2022-07-28T12:28:18.291Z,99123.28
2022-07-28T12:31:26.156Z,99121.12
2022-07-28T12:34:35.256Z,99125.29
2022-07-28T12:37:43.305Z,99126.05
2022-07-28T12:40:49.655Z,99113.86
2022-07-28T12:43:56.945Z,99112.76
2022-07-28T12:47:03.893Z,99115.15
2022-07-28T12:50:14.727Z,99103.95
2022-07-28T12:53:23.006Z,99106.09
2022-07-28T12:56:29.022Z,99104.02
2022-07-28T12:59:39.504Z,99107.27
2022-07-28T13:02:45.729Z,99103.94
2022-07-28T13:06:04.271Z,99100.67
2022-07-28T13:09:14.948Z,99102.84
2022-07-28T13:12:23.706Z,99104.77
2022-07-28T13:15:29.856Z,99107.83
2022-07-28T13:18:43.394Z,99108.45
2022-07-28T13:21:58.528Z,99104.11
2022-07-28T13:25:07.183Z,99095.69
2022-07-28T13:28:27.238Z,99095.70
2022-07-28T13:31:35.850Z,99096.33
2022-07-28T13:34:43.147Z,99094.31
2022-07-28T13:37:49.418Z,99088.07
2022-07-28T13:40:55.575Z,99095.09
2022-07-28T13:44:01.732Z,99095.51
2022-07-28T13:47:08.721Z,99102.50
2022-07-28T13:50:15.069Z,99102.14
2022-07-28T13:53:21.796Z,99101.66
2022-07-28T13:56:27.935Z,99098.65
2022-07-28T13:59:35.447Z,99096.10
2022-07-28T14:02:44.470Z,99091.46
2022-07-28T14:05:51.230Z,99088.01
2022-07-28T14:09:00.804Z,99091.46
2022-07-28T14:12:12.039Z,99093.80
2022-07-28T14:15:18.210Z,99087.23
2022-07-28T14:18:24.877Z,99086.52
2022-07-28T14:21:31.258Z,99086.89
2022-07-28T14:24:39.769Z,99079.59
2022-07-28T14:27:45.926Z,99082.27
2022-07-28T14:30:51.995Z,99084.48
2022-07-28T14:33:58.160Z,99081.48
2022-07-28T14:37:08.678Z,99078.64
2022-07-28T14:40:17.444Z,99080.64
2022-07-28T14:43:23.628Z,99078.75
2022-07-28T14:46:30.042Z,99076.69
2022-07-28T14:49:36.562Z,99074.64
2022-07-28T14:52:45.068Z,99069.95
2022-07-28T14:55:51.604Z,99068.05
2022-07-28T14:58:57.822Z,99068.84
2022-07-28T15:02:04.639Z,99064.48
2022-07-28T15:05:12.398Z,99064.48
2022-07-28T15:08:18.557Z,99060.53
2022-07-28T15:11:25.770Z,99060.17
2022-07-28T15:14:31.988Z,99057.03
2022-07-28T15:17:38.267Z,99054.73
2022-07-28T15:20:45.083Z,99051.11
2022-07-28T15:23:51.206Z,99046.38
2022-07-28T15:26:57.386Z,99046.59
2022-07-28T15:30:03.746Z,99046.87
2022-07-28T15:33:14.439Z,99044.19
2022-07-28T15:36:25.830Z,99044.27
2022-07-28T15:39:32.052Z,99046.25
2022-07-28T15:42:38.611Z,99044.90
2022-07-28T15:45:45.754Z,99043.61
2022-07-28T15:48:54.585Z,99050.52
2022-07-28T15:52:01.099Z,99048.35
2022-07-28T15:55:08.772Z,99045.77
2022-07-28T15:58:15.126Z,99046.27
2022-07-28T16:01:24.417Z,99039.83
2022-07-28T16:04:32.574Z,99045.75
2022-07-28T16:07:41.923Z,99042.70
2022-07-28T16:10:51.608Z,99041.48
2022-07-28T16:13:57.882Z,99047.46
2022-07-28T16:17:04.114Z,99040.88
2022-07-28T16:20:12.083Z,99043.95
2022-07-28T16:23:18.196Z,99040.80
2022-07-28T16:26:24.474Z,99040.84
2022-07-28T16:29:33.596Z,99043.34
2022-07-28T16:32:40.254Z,99046.79
2022-07-28T16:35:46.394Z,99047.16
2022-07-28T16:38:52.815Z,99054.44
2022-07-28T16:41:58.983Z,99057.05
2022-07-28T16:45:06.433Z,99052.90
2022-07-28T16:48:12.994Z,99051.49
2022-07-28T16:51:21.803Z,99053.96
2022-07-28T16:54:27.907Z,99056.70
2022-07-28T16:57:34.008Z,99056.52
2022-07-28T17:00:40.261Z,99056.58
2022-07-28T17:03:46.496Z,99055.31
2022-07-28T17:06:52.670Z,99055.89
2022-07-28T17:09:58.895Z,99055.80
2022-07-28T17:13:05.277Z,99061.50
2022-07-28T17:16:11.449Z,99058.32
2022-07-28T17:19:21.597Z,99055.73
2022-07-28T17:22:27.810Z,99060.09
2022-07-28T17:29:00.362Z,99062.02
2022-07-28T17:32:07.458Z,99064.41
2022-07-28T17:35:34.807Z,99063.49
2022-07-28T17:38:40.522Z,99063.95
2022-07-28T17:41:46.616Z,99070.46
2022-07-28T17:44:56.383Z,99071.64
2022-07-28T17:48:02.671Z,99075.31
2022-07-28T17:51:08.934Z,99082.70
2022-07-28T17:54:16.104Z,99089.85
2022-07-28T17:57:22.801Z,99088.16
2022-07-28T18:00:31.548Z,99089.27
2022-07-28T18:03:59.304Z,99089.48
2022-07-28T18:07:04.194Z,99093.34
2022-07-28T18:10:11.872Z,99096.90
2022-07-28T18:13:18.019Z,99094.29
2022-07-28T18:16:24.382Z,99094.98
2022-07-28T18:19:31.120Z,99089.10
2022-07-28T18:22:38.671Z,99090.09
2022-07-28T18:25:45.467Z,99092.77
2022-07-28T18:28:52.265Z,99093.31
2022-07-28T18:31:58.416Z,99093.52
2022-07-28T18:35:04.594Z,99097.27
2022-07-28T18:38:10.892Z,99100.34
2022-07-28T18:41:16.909Z,99103.92
2022-07-28T18:44:23.022Z,99110.83
2022-07-28T18:47:29.495Z,99110.54
2022-07-28T18:50:35.708Z,99113.40
2022-07-28T18:53:46.995Z,99116.57
2022-07-28T18:56:53.931Z,99117.98
2022-07-28T19:00:00.684Z,99118.98
2022-07-28T19:03:07.216Z,99123.20
2022-07-28T19:06:13.467Z,99129.05
2022-07-28T19:09:19.531Z,99130.64
2022-07-28T19:12:26.460Z,99133.55
2022-07-28T19:15:32.832Z,99134.16
2022-07-28T19:18:39.083Z,99136.55
2022-07-28T19:21:45.218Z,99138.14
2022-07-28T19:24:52.090Z,99137.00
2022-07-28T19:28:01.140Z,99133.11
2022-07-28T19:31:10.703Z,99137.26
2022-07-28T19:34:17.423Z,99140.50
2022-07-28T19:37:23.827Z,99140.50
2022-07-28T19:40:32.003Z,99137.25
2022-07-28T19:43:38.378Z,99143.35
2022-07-28T19:46:45.457Z,99142.41
2022-07-28T19:49:51.728Z,99148.08
2022-07-28T19:52:57.824Z,99146.02
2022-07-28T19:56:08.759Z,99146.20
2022-07-28T19:59:15.562Z,99144.98
2022-07-28T20:02:21.809Z,99143.09
2022-07-28T20:05:28.138Z,99147.46
2022-07-28T20:08:34.298Z,99146.14
2022-07-28T20:11:40.936Z,99152.35
2022-07-28T20:14:47.129Z,99158.40
2022-07-28T20:17:53.343Z,99163.84
2022-07-28T20:20:59.513Z,99161.66
2022-07-28T20:24:06.470Z,99162.13
2022-07-28T20:27:12.769Z,99170.27
2022-07-28T20:30:19.011Z,99168.32
2022-07-28T20:33:25.300Z,99172.23
2022-07-28T20:36:31.709Z,99168.98
2022-07-28T20:39:44.908Z,99166.80
2022-07-28T20:42:53.554Z,99166.34
2022-07-28T20:45:59.819Z,99168.34
2022-07-28T20:49:06.067Z,99169.27
2022-07-28T20:52:12.296Z,99173.77
2022-07-28T20:55:18.540Z,99174.82
2022-07-28T20:58:24.617Z,99176.46
2022-07-28T21:01:30.887Z,99176.50
2022-07-28T21:04:37.084Z,99175.79
2022-07-28T21:08:05.104Z,99173.69
2022-07-28T21:11:09.664Z,99174.74
2022-07-28T21:14:16.276Z,99177.37
2022-07-28T21:17:22.596Z,99173.43
2022-07-28T21:20:29.324Z,99174.89
2022-07-28T21:23:36.358Z,99176.11
2022-07-28T21:26:43.824Z,99178.08
2022-07-28T21:29:50.039Z,99180.01
2022-07-28T21:32:56.153Z,99183.70
2022-07-28T21:36:03.274Z,99187.85
2022-07-28T21:39:10.669Z,99189.14
2022-07-28T21:42:16.873Z,99188.58
2022-07-28T21:45:23.525Z,99191.65
2022-07-28T21:48:30.865Z,99195.80
2022-07-28T21:51:37.027Z,99195.73
2022-07-28T21:54:43.231Z,99193.73
2022-07-28T21:57:49.646Z,99195.47
2022-07-28T22:00:59.427Z,99193.59
2022-07-28T22:04:08.775Z,99195.38
2022-07-28T22:07:14.962Z,99201.64
2022-07-28T22:10:23.094Z,99200.80
2022-07-28T22:13:29.367Z,99204.16
2022-07-28T22:16:35.568Z,99206.48
2022-07-28T22:19:41.806Z,99206.86
2022-07-28T22:22:47.952Z,99205.09
2022-07-28T22:25:54.078Z,99208.67
2022-07-28T22:29:00.270Z,99206.73
2022-07-28T22:32:07.507Z,99204.92
2022-07-28T22:35:14.103Z,99207.98
2022-07-28T22:38:20.306Z,99209.58
2022-07-28T22:41:26.508Z,99207.43
2022-07-28T22:44:33.329Z,99206.17
2022-07-28T22:47:39.656Z,99205.95
2022-07-28T22:50:45.873Z,99201.66
2022-07-28T22:53:51.997Z,99200.93
2022-07-28T22:56:58.056Z,99205.09
2022-07-28T23:00:02.550Z,99201.52
2022-07-28T23:03:13.079Z,99203.52
2022-07-28T23:06:19.795Z,99201.31
2022-07-28T23:09:25.905Z,99206.05
2022-07-28T23:12:31.842Z,99202.63
2022-07-28T23:15:40.575Z,99205.29
2022-07-28T23:18:47.681Z,99204.36
2022-07-28T23:21:53.774Z,99200.87
2022-07-28T23:24:58.466Z,99204.52
2022-07-28T23:28:04.577Z,99207.61
2022-07-28T23:31:10.802Z,99206.44
2022-07-28T23:34:17.176Z,99203.43
2022-07-28T23:37:23.291Z,99198.13
2022-07-28T23:40:29.453Z,99200.42
2022-07-28T23:43:35.577Z,99201.14
2022-07-28T23:46:41.739Z,99201.98
2022-07-28T23:49:47.762Z,99202.84
2022-07-28T23:52:53.857Z,99205.70
2022-07-28T23:55:58.800Z,99200.61
2022-07-28T23:59:04.842Z,99197.49
